createdAt,value
2023-07-04T00:28:18.655Z,18.63
2023-07-04T00:29:51.930Z,18.64
2023-07-04T00:31:27.034Z,18.65
2023-07-04T00:32:59.228Z,18.65
2023-07-04T00:34:31.377Z,18.64
2023-07-04T00:36:08.921Z,18.61
2023-07-04T00:37:40.959Z,18.60
2023-07-04T00:39:13.027Z,18.58
2023-07-04T00:40:45.751Z,18.57
2023-07-04T00:42:17.711Z,18.56
2023-07-04T00:43:59.250Z,18.52
2023-07-04T00:45:37.062Z,18.49
2023-07-04T00:47:23.415Z,18.44
2023-07-04T00:48:55.710Z,18.41
2023-07-04T00:50:28.727Z,18.38
2023-07-04T00:52:11.005Z,18.36
2023-07-04T00:53:43.484Z,18.35
2023-07-04T00:55:16.204Z,18.33
2023-07-04T00:56:48.179Z,18.32
2023-07-04T00:58:20.251Z,18.31
2023-07-04T00:59:54.105Z,18.31
2023-07-04T01:03:10.746Z,18.34
2023-07-04T01:04:43.364Z,18.33
2023-07-04T01:06:21.174Z,18.35
2023-07-04T01:08:00.433Z,18.37
2023-07-04T01:09:33.119Z,18.36
2023-07-04T01:11:06.433Z,18.33
2023-07-04T01:12:38.635Z,18.34
2023-07-04T01:14:20.311Z,18.31
2023-07-04T01:15:52.242Z,18.29
2023-07-04T01:17:25.402Z,18.27
2023-07-04T01:18:57.665Z,18.28
2023-07-04T01:20:30.069Z,18.28
2023-07-04T01:22:14.090Z,18.27
2023-07-04T01:23:50.963Z,18.27
2023-07-04T01:25:25.646Z,18.25
2023-07-04T01:26:58.340Z,18.21
2023-07-04T01:28:31.056Z,18.21
2023-07-04T01:31:42.570Z,18.22
2023-07-04T01:33:15.092Z,18.20
2023-07-04T01:34:47.506Z,18.19
2023-07-04T01:37:52.173Z,18.17
2023-07-04T01:39:24.172Z,18.16
2023-07-04T01:40:56.138Z,18.13
2023-07-04T01:42:32.680Z,18.10
2023-07-04T01:44:06.013Z,18.10
2023-07-04T01:45:38.047Z,18.10
2023-07-04T01:47:10.176Z,18.10
2023-07-04T01:48:42.792Z,18.11
2023-07-04T01:50:14.887Z,18.10
2023-07-04T01:51:46.965Z,18.07
2023-07-04T01:53:18.977Z,18.05
2023-07-04T01:54:51.017Z,18.05
2023-07-04T01:56:23.155Z,18.06
2023-07-04T01:57:55.133Z,18.07
2023-07-04T01:59:27.095Z,18.06
2023-07-04T02:00:59.372Z,18.06
2023-07-04T02:02:31.377Z,18.03
2023-07-04T02:04:03.419Z,18.03
2023-07-04T02:05:35.349Z,17.99
2023-07-04T02:07:07.249Z,17.98
2023-07-04T02:08:39.169Z,17.97
2023-07-04T02:10:11.046Z,17.96
2023-07-04T02:11:42.966Z,17.95
2023-07-04T02:13:15.502Z,17.93
2023-07-04T02:14:47.519Z,17.93
2023-07-04T02:16:19.510Z,17.92
2023-07-04T02:17:52.247Z,17.92
2023-07-04T02:19:24.218Z,17.92
2023-07-04T02:20:57.698Z,17.92
2023-07-04T02:22:29.688Z,17.94
2023-07-04T02:24:02.265Z,17.95
2023-07-04T02:25:34.212Z,17.94
2023-07-04T02:27:06.209Z,17.91
2023-07-04T02:28:38.259Z,17.90
2023-07-04T02:30:10.409Z,17.89
2023-07-04T02:31:42.472Z,17.89
2023-07-04T02:33:14.560Z,17.88
2023-07-04T02:34:46.761Z,17.86
2023-07-04T02:36:18.730Z,17.86
2023-07-04T02:37:50.668Z,17.86
2023-07-04T02:39:23.084Z,17.88
2023-07-04T02:40:55.263Z,17.85
2023-07-04T02:42:27.747Z,17.84
2023-07-04T02:44:00.082Z,17.82
2023-07-04T02:45:32.043Z,17.82
2023-07-04T02:47:04.235Z,17.78
2023-07-04T02:48:36.333Z,17.76
2023-07-04T02:50:08.491Z,17.76
2023-07-04T02:51:40.525Z,17.74
2023-07-04T02:53:12.709Z,17.74
2023-07-04T02:54:44.684Z,17.74
2023-07-04T02:56:16.889Z,17.72
2023-07-04T02:57:48.918Z,17.70
2023-07-04T02:59:20.925Z,17.71
2023-07-04T03:00:53.741Z,17.71
2023-07-04T03:02:26.156Z,17.70
2023-07-04T03:03:58.494Z,17.69
2023-07-04T03:05:30.530Z,17.67
2023-07-04T03:07:02.466Z,17.67
2023-07-04T03:08:34.551Z,17.69
2023-07-04T03:10:06.976Z,17.70
2023-07-04T03:11:38.999Z,17.70
2023-07-04T03:13:11.017Z,17.68
2023-07-04T03:14:43.050Z,17.69
2023-07-04T03:16:14.996Z,17.69
2023-07-04T03:17:47.118Z,17.72
2023-07-04T03:19:19.159Z,17.75
2023-07-04T03:20:51.804Z,17.78
2023-07-04T03:22:24.156Z,17.83
2023-07-04T03:23:56.365Z,17.84
2023-07-04T03:25:28.422Z,17.88
2023-07-04T03:27:00.402Z,17.91
2023-07-04T03:28:32.392Z,17.94
2023-07-04T03:30:05.054Z,17.95
2023-07-04T03:31:37.236Z,17.99
2023-07-04T03:33:09.362Z,17.99
2023-07-04T03:34:41.331Z,17.98
2023-07-04T03:36:13.493Z,17.95
2023-07-04T03:37:45.503Z,17.96
2023-07-04T03:39:18.257Z,17.96
2023-07-04T03:40:50.599Z,17.98
2023-07-04T03:42:22.871Z,17.99
2023-07-04T03:43:54.918Z,18.00
2023-07-04T03:45:26.888Z,18.03
2023-07-04T03:46:58.877Z,18.05
2023-07-04T03:48:30.893Z,18.11
2023-07-04T03:50:02.956Z,18.12
2023-07-04T03:51:34.919Z,18.15
2023-07-04T03:53:06.865Z,18.18
2023-07-04T03:54:38.894Z,18.22
2023-07-04T03:56:10.843Z,18.25
2023-07-04T03:57:43.048Z,18.28
2023-07-04T03:59:15.027Z,18.31
2023-07-04T04:00:51.738Z,18.36
2023-07-04T04:02:24.394Z,18.40
2023-07-04T04:03:56.761Z,18.45
2023-07-04T04:05:29.320Z,18.47
2023-07-04T04:07:01.312Z,18.48
2023-07-04T04:08:33.328Z,18.51
2023-07-04T04:10:05.658Z,18.54
2023-07-04T04:11:37.626Z,18.58
2023-07-04T04:13:10.597Z,18.61
2023-07-04T04:14:42.615Z,18.66
2023-07-04T04:16:14.749Z,18.69
2023-07-04T04:17:46.876Z,18.75
2023-07-04T04:20:58.393Z,18.85
2023-07-04T04:22:30.430Z,18.90
2023-07-04T04:24:02.386Z,18.96
2023-07-04T04:25:39.804Z,19.01
2023-07-04T04:27:14.334Z,19.09
2023-07-04T04:28:46.403Z,19.14
2023-07-04T04:30:18.528Z,19.20
2023-07-04T04:31:50.768Z,19.28
2023-07-04T04:33:22.814Z,19.35
2023-07-04T04:34:55.073Z,19.43
2023-07-04T04:36:27.042Z,19.50
2023-07-04T04:37:59.190Z,19.56
2023-07-04T04:39:31.501Z,19.63
2023-07-04T04:41:05.155Z,19.69
2023-07-04T04:42:37.178Z,19.74
2023-07-04T04:44:10.253Z,19.80
2023-07-04T04:45:43.282Z,19.87
2023-07-04T04:47:15.276Z,19.93
2023-07-04T04:48:47.302Z,20.00
2023-07-04T04:50:19.338Z,20.07
2023-07-04T04:51:54.409Z,20.14
2023-07-04T04:53:26.696Z,20.21
2023-07-04T04:54:59.233Z,20.30
2023-07-04T04:56:31.295Z,20.37
2023-07-04T04:58:03.306Z,20.46
2023-07-04T04:59:35.427Z,20.53
2023-07-04T05:01:18.486Z,20.59
2023-07-04T05:02:50.489Z,20.67
2023-07-04T05:04:22.550Z,20.75
2023-07-04T05:05:54.588Z,20.84
2023-07-04T05:07:27.099Z,20.93
2023-07-04T05:09:00.832Z,21.02
2023-07-04T05:10:33.025Z,21.11
2023-07-04T05:12:05.277Z,21.18
2023-07-04T05:13:38.110Z,21.27
2023-07-04T05:15:10.433Z,21.35
2023-07-04T05:16:42.547Z,21.42
2023-07-04T05:18:14.574Z,21.48
2023-07-04T05:19:52.398Z,21.55
2023-07-04T05:21:24.814Z,21.63
2023-07-04T05:22:57.907Z,21.69
2023-07-04T05:24:31.305Z,21.73
2023-07-04T05:26:10.397Z,21.76
2023-07-04T05:27:43.432Z,21.82
2023-07-04T05:29:15.386Z,21.88
2023-07-04T05:30:47.386Z,21.95
2023-07-04T05:32:19.520Z,22.01
2023-07-04T05:33:52.428Z,22.07
2023-07-04T05:35:24.415Z,22.10
2023-07-04T05:36:56.494Z,22.13
2023-07-04T05:38:28.520Z,22.18
2023-07-04T05:40:00.536Z,22.23
2023-07-04T05:41:33.057Z,22.30
2023-07-04T05:43:05.136Z,22.35
2023-07-04T05:44:37.335Z,22.41
2023-07-04T05:46:10.013Z,22.47
2023-07-04T05:47:42.065Z,22.54
2023-07-04T05:49:14.157Z,22.60
2023-07-04T05:50:52.845Z,22.66
2023-07-04T05:52:25.655Z,22.73
2023-07-04T05:53:57.646Z,22.81
2023-07-04T05:55:31.113Z,22.86
2023-07-04T05:57:05.321Z,22.92
2023-07-04T05:58:37.793Z,22.96
2023-07-04T06:00:11.379Z,23.02
2023-07-04T06:01:44.309Z,23.08
2023-07-04T06:03:19.460Z,23.14
2023-07-04T06:04:51.732Z,23.21
2023-07-04T06:06:23.781Z,23.26
2023-07-04T06:07:55.761Z,23.33
2023-07-04T06:09:27.836Z,23.40
2023-07-04T06:11:00.658Z,23.46
2023-07-04T06:12:33.372Z,23.52
2023-07-04T06:14:05.896Z,23.59
2023-07-04T06:15:41.843Z,23.67
2023-07-04T06:17:16.987Z,23.72
2023-07-04T06:18:48.961Z,23.78
2023-07-04T06:20:21.736Z,23.84
2023-07-04T06:21:54.355Z,23.92
2023-07-04T06:23:26.578Z,24.00
2023-07-04T06:24:58.504Z,24.07
2023-07-04T06:26:33.673Z,24.13
2023-07-04T06:28:16.337Z,24.17
2023-07-04T06:29:49.177Z,24.21
2023-07-04T06:31:21.407Z,24.24
2023-07-04T06:32:53.431Z,24.32
2023-07-04T06:34:25.546Z,24.38
2023-07-04T06:35:57.594Z,24.41
2023-07-04T06:37:29.529Z,24.50
2023-07-04T06:39:02.137Z,24.56
2023-07-04T06:40:34.146Z,24.61
2023-07-04T06:42:06.333Z,24.66
2023-07-04T06:43:42.023Z,24.70
2023-07-04T06:45:14.188Z,24.74
2023-07-04T06:46:46.293Z,24.77
2023-07-04T06:48:18.299Z,24.80
2023-07-04T06:49:50.286Z,24.83
2023-07-04T06:53:08.810Z,24.92
2023-07-04T06:54:40.905Z,24.99
2023-07-04T06:56:16.870Z,25.05
2023-07-04T06:57:50.236Z,25.14
2023-07-04T06:59:22.387Z,25.18
2023-07-04T07:00:57.817Z,25.25
2023-07-04T07:02:29.919Z,25.33
2023-07-04T07:04:02.234Z,25.40
2023-07-04T07:05:38.276Z,25.43
2023-07-04T07:07:11.205Z,25.45
2023-07-04T07:08:43.292Z,25.47
2023-07-04T07:10:15.378Z,25.51
2023-07-04T07:11:47.453Z,25.57
2023-07-04T07:13:19.437Z,25.63
2023-07-04T07:14:51.686Z,25.67
2023-07-04T07:16:24.660Z,25.70
2023-07-04T07:17:56.852Z,25.73
2023-07-04T07:19:28.916Z,25.78
2023-07-04T07:21:01.117Z,25.84
2023-07-04T07:22:33.054Z,25.89
2023-07-04T07:24:05.232Z,25.95
2023-07-04T07:25:37.725Z,26.00
2023-07-04T07:27:10.198Z,26.03
2023-07-04T07:28:42.338Z,26.09
2023-07-04T07:30:14.404Z,26.13
2023-07-04T07:31:47.012Z,26.19
2023-07-04T07:33:19.687Z,26.23
2023-07-04T07:34:51.879Z,26.28
2023-07-04T07:36:24.765Z,26.32
2023-07-04T07:37:56.725Z,26.38
2023-07-04T07:39:28.822Z,26.39
2023-07-04T07:41:00.829Z,26.43
2023-07-04T07:42:32.890Z,26.50
2023-07-04T07:44:05.523Z,26.55
2023-07-04T07:45:37.852Z,26.58
2023-07-04T07:47:11.851Z,26.62
2023-07-04T07:48:44.225Z,26.67
2023-07-04T07:50:16.389Z,26.69
2023-07-04T07:51:48.396Z,26.74
2023-07-04T07:53:20.399Z,26.80
2023-07-04T07:54:52.411Z,26.83
2023-07-04T07:56:25.615Z,26.91
2023-07-04T07:57:59.231Z,26.95
2023-07-04T07:59:33.168Z,26.98
2023-07-04T08:01:22.045Z,27.02
2023-07-04T08:02:54.190Z,27.07
2023-07-04T08:04:27.276Z,27.10
2023-07-04T08:05:59.303Z,27.12
2023-07-04T08:07:31.277Z,27.16
2023-07-04T08:09:05.014Z,27.20
2023-07-04T08:10:43.548Z,27.21
2023-07-04T08:12:15.502Z,27.28
2023-07-04T08:13:47.843Z,27.31
2023-07-04T08:15:20.021Z,27.35
2023-07-04T08:16:52.874Z,27.40
2023-07-04T08:18:25.903Z,27.43
2023-07-04T08:19:58.078Z,27.45
2023-07-04T08:21:30.540Z,27.49
2023-07-04T08:23:02.586Z,27.55
2023-07-04T08:24:34.658Z,27.62
2023-07-04T08:26:06.670Z,27.67
2023-07-04T08:27:38.768Z,27.71
2023-07-04T08:29:15.814Z,27.73
2023-07-04T08:30:47.817Z,27.79
2023-07-04T08:32:20.248Z,27.85
2023-07-04T08:33:52.277Z,27.92
2023-07-04T08:35:24.535Z,27.98
2023-07-04T08:36:56.815Z,28.04
2023-07-04T08:38:29.076Z,28.09
2023-07-04T08:40:01.135Z,28.13
2023-07-04T08:41:48.146Z,28.20
2023-07-04T08:43:21.409Z,28.26
2023-07-04T08:44:55.805Z,28.32
2023-07-04T08:46:37.880Z,28.37
2023-07-04T08:48:10.531Z,28.40
2023-07-04T08:49:52.825Z,28.41
2023-07-04T08:51:29.460Z,28.44
2023-07-04T08:53:03.956Z,28.45
2023-07-04T08:54:35.999Z,28.48
2023-07-04T08:56:14.691Z,28.49
2023-07-04T08:57:54.172Z,28.52
2023-07-04T08:59:41.191Z,28.56
2023-07-04T09:01:14.920Z,28.60
2023-07-04T09:03:02.593Z,28.63
2023-07-04T09:04:37.988Z,28.67
2023-07-04T09:07:54.860Z,28.70
2023-07-04T09:09:31.058Z,28.71
2023-07-04T09:11:04.716Z,28.74
2023-07-04T09:12:37.278Z,28.74
2023-07-04T09:14:10.994Z,28.81
2023-07-04T09:15:47.139Z,28.88
2023-07-04T09:17:24.901Z,28.93
2023-07-04T09:18:58.435Z,28.97
2023-07-04T09:20:33.782Z,29.00
2023-07-04T09:22:06.428Z,29.05
2023-07-04T09:23:38.499Z,29.06
2023-07-04T09:25:11.011Z,29.11
2023-07-04T09:26:51.593Z,29.16
2023-07-04T09:28:23.581Z,29.18
2023-07-04T09:29:55.562Z,29.22
2023-07-04T09:31:31.277Z,29.29
2023-07-04T09:33:04.155Z,29.34
2023-07-04T09:34:43.019Z,29.39
2023-07-04T09:36:15.353Z,29.42
2023-07-04T09:38:02.996Z,29.44
2023-07-04T09:41:27.078Z,29.43
2023-07-04T09:42:59.207Z,29.43
2023-07-04T09:44:31.849Z,29.42
2023-07-04T09:46:30.320Z,29.44
2023-07-04T09:48:02.473Z,29.51
2023-07-04T09:49:36.826Z,29.55
2023-07-04T09:53:13.669Z,29.65
2023-07-04T09:54:45.792Z,29.71
2023-07-04T09:56:27.730Z,29.74
2023-07-04T09:58:18.929Z,29.80
2023-07-04T09:59:54.472Z,29.84
2023-07-04T10:01:27.480Z,29.87
2023-07-04T10:03:05.624Z,29.92
2023-07-04T10:04:37.984Z,29.97
2023-07-04T10:06:13.008Z,30.00
2023-07-04T10:07:45.030Z,30.02
2023-07-04T10:09:20.650Z,30.06
2023-07-04T10:10:56.581Z,30.09
2023-07-04T10:12:31.191Z,30.14
2023-07-04T10:14:08.721Z,30.17
2023-07-04T10:15:45.292Z,30.21
2023-07-04T10:17:22.633Z,30.27
2023-07-04T10:19:03.603Z,30.32
2023-07-04T10:20:43.311Z,30.37
2023-07-04T10:22:23.564Z,30.39
2023-07-04T10:23:55.716Z,30.43
2023-07-04T10:25:28.718Z,30.45
2023-07-04T10:27:02.128Z,30.46
2023-07-04T10:28:34.978Z,30.49
2023-07-04T10:30:07.791Z,30.53
2023-07-04T10:31:39.920Z,30.57
2023-07-04T10:33:16.890Z,30.59
2023-07-04T10:34:49.796Z,30.62
2023-07-04T10:36:25.343Z,30.66
2023-07-04T10:37:59.457Z,30.67
2023-07-04T10:39:34.248Z,30.69
2023-07-04T10:41:11.101Z,30.70
2023-07-04T10:42:46.135Z,30.72
2023-07-04T10:44:20.657Z,30.70
2023-07-04T10:46:01.269Z,30.71
2023-07-04T10:47:35.877Z,30.74
2023-07-04T10:49:08.238Z,30.76
2023-07-04T10:52:15.832Z,30.78
2023-07-04T10:53:47.919Z,30.78
2023-07-04T10:55:30.855Z,30.80
2023-07-04T10:57:06.531Z,30.83
2023-07-04T10:58:39.835Z,30.83
2023-07-04T11:00:12.073Z,30.88
2023-07-04T11:01:53.245Z,30.90
2023-07-04T11:03:28.188Z,30.88
2023-07-04T11:05:09.782Z,30.91
2023-07-04T11:06:43.722Z,30.93
2023-07-04T11:08:17.176Z,30.95
2023-07-04T11:09:49.297Z,30.96
2023-07-04T11:11:25.803Z,30.97
2023-07-04T11:12:58.271Z,30.98
2023-07-04T11:14:30.454Z,31.00
2023-07-04T11:16:05.127Z,31.03
2023-07-04T11:17:37.301Z,31.07
2023-07-04T11:19:29.710Z,31.13
2023-07-04T11:21:12.518Z,31.20
2023-07-04T11:23:04.231Z,31.23
2023-07-04T11:24:38.568Z,31.22
2023-07-04T11:26:10.735Z,31.23
2023-07-04T11:27:42.681Z,31.25
2023-07-04T11:29:17.796Z,31.20
2023-07-04T11:30:51.407Z,31.18
2023-07-04T11:32:27.960Z,31.19
2023-07-04T11:33:59.981Z,31.21
2023-07-04T11:35:33.213Z,31.25
2023-07-04T11:37:06.832Z,31.29
2023-07-04T11:38:43.221Z,31.32
2023-07-04T11:40:29.958Z,31.34
2023-07-04T11:42:18.276Z,31.38
2023-07-04T11:43:50.262Z,31.39
2023-07-04T11:45:26.617Z,31.36
2023-07-04T11:46:59.928Z,31.35
2023-07-04T11:48:33.329Z,31.37
2023-07-04T11:50:09.038Z,31.38
2023-07-04T11:51:41.260Z,31.40
2023-07-04T11:53:17.097Z,31.37
2023-07-04T11:54:58.637Z,31.38
2023-07-04T11:56:30.750Z,31.38
2023-07-04T11:58:08.720Z,31.41
2023-07-04T11:59:43.372Z,31.46
2023-07-04T12:01:16.494Z,31.50
2023-07-04T12:02:48.547Z,31.52
2023-07-04T12:04:24.891Z,31.54
2023-07-04T12:05:58.229Z,31.53
2023-07-04T12:07:39.347Z,31.59
2023-07-04T12:09:12.810Z,31.59
2023-07-04T12:10:44.929Z,31.63
2023-07-04T12:12:17.925Z,31.66
2023-07-04T12:13:50.885Z,31.65
2023-07-04T12:15:27.549Z,31.65
2023-07-04T12:17:00.926Z,31.69
2023-07-04T12:18:36.452Z,31.70
2023-07-04T12:20:11.464Z,31.73
2023-07-04T12:21:45.999Z,31.78
2023-07-04T12:23:18.206Z,31.80
2023-07-04T12:24:50.649Z,31.84
2023-07-04T12:26:25.604Z,31.82
2023-07-04T12:27:59.849Z,31.83
2023-07-04T12:31:41.069Z,31.77
2023-07-04T12:33:04.708Z,31.70
2023-07-04T12:36:16.254Z,31.55
2023-07-04T12:37:49.052Z,31.51
2023-07-04T12:39:22.850Z,31.50
2023-07-04T12:40:55.217Z,31.54
2023-07-04T12:42:29.544Z,31.56
2023-07-04T12:45:37.968Z,31.72
2023-07-04T12:50:21.621Z,31.83
2023-07-04T12:51:53.658Z,31.85
2023-07-04T12:53:25.830Z,31.89
2023-07-04T12:54:58.022Z,31.90
2023-07-04T12:56:30.265Z,31.96
2023-07-04T12:58:02.680Z,32.01
2023-07-04T12:59:38.013Z,32.06
2023-07-04T13:01:11.988Z,32.08
2023-07-04T13:02:46.352Z,32.09
2023-07-04T13:04:19.734Z,32.11
2023-07-04T13:05:52.838Z,32.14
2023-07-04T13:07:25.532Z,32.15
2023-07-04T13:08:58.857Z,32.18
2023-07-04T13:10:32.244Z,32.17
2023-07-04T13:12:04.436Z,32.17
2023-07-04T13:13:39.976Z,32.18
2023-07-04T13:15:13.660Z,32.17
2023-07-04T13:16:45.723Z,32.19
2023-07-04T13:18:20.798Z,32.19
2023-07-04T13:19:52.784Z,32.14
2023-07-04T13:21:24.781Z,32.13
2023-07-04T13:26:20.612Z,32.09
2023-07-04T13:27:55.671Z,32.11
2023-07-04T13:33:00.895Z,32.06
2023-07-04T13:34:33.092Z,32.06
2023-07-04T13:36:09.224Z,32.08
2023-07-04T13:40:52.749Z,32.08
2023-07-04T13:42:24.920Z,32.11
2023-07-04T13:45:33.039Z,32.12
2023-07-04T13:47:05.485Z,32.13
2023-07-04T13:48:37.446Z,32.13
2023-07-04T13:50:15.624Z,32.12
2023-07-04T13:51:47.826Z,32.15
2023-07-04T13:53:19.844Z,32.17
2023-07-04T13:54:51.887Z,32.20
2023-07-04T13:56:24.055Z,32.20
2023-07-04T13:57:56.862Z,32.19
2023-07-04T13:59:28.840Z,32.17
2023-07-04T14:05:49.460Z,32.13
2023-07-04T14:07:26.485Z,32.14
2023-07-04T14:08:58.799Z,32.13
2023-07-04T14:10:34.339Z,32.14
2023-07-04T14:12:07.253Z,32.13
2023-07-04T14:13:39.491Z,32.07
2023-07-04T14:17:26.783Z,32.00
2023-07-04T14:20:13.919Z,32.01
2023-07-04T14:21:46.187Z,32.02
2023-07-04T14:23:18.503Z,32.02
2023-07-04T14:24:52.974Z,32.01
2023-07-04T14:26:24.958Z,31.99
2023-07-04T14:27:57.079Z,31.99
2023-07-04T14:29:29.092Z,32.03
2023-07-04T14:31:01.314Z,32.07
2023-07-04T14:32:36.845Z,32.10
2023-07-04T14:34:08.951Z,32.12
2023-07-04T14:35:43.364Z,32.09
2023-07-04T14:37:15.401Z,32.11
2023-07-04T14:38:47.424Z,32.09
2023-07-04T14:42:29.560Z,32.11
2023-07-04T14:42:31.103Z,32.12
2023-07-04T14:44:03.600Z,32.13
2023-07-04T14:45:35.883Z,32.12
2023-07-04T14:47:08.245Z,32.11
2023-07-04T14:48:41.224Z,32.08
2023-07-04T14:50:13.293Z,32.05
2023-07-04T14:51:47.614Z,32.02
2023-07-04T14:53:19.592Z,31.99
2023-07-04T14:54:51.906Z,31.97
2023-07-04T14:56:33.409Z,31.95
2023-07-04T14:58:13.101Z,31.94
2023-07-04T14:59:45.509Z,31.92
2023-07-04T15:01:19.438Z,31.90
2023-07-04T15:02:51.616Z,31.91
2023-07-04T15:04:24.460Z,31.91
2023-07-04T15:05:59.741Z,31.91
2023-07-04T15:07:31.772Z,31.91
2023-07-04T15:09:04.279Z,31.90
2023-07-04T15:10:38.625Z,31.90
2023-07-04T15:12:10.846Z,31.85
2023-07-04T15:13:42.936Z,31.84
2023-07-04T15:15:15.085Z,31.81
2023-07-04T15:16:47.137Z,31.79
2023-07-04T15:18:19.227Z,31.78
2023-07-04T15:19:51.215Z,31.77
2023-07-04T15:21:24.206Z,31.78
2023-07-04T15:22:56.570Z,31.74
2023-07-04T15:24:28.936Z,31.73
2023-07-04T15:26:15.314Z,31.72
2023-07-04T15:27:54.038Z,31.69
2023-07-04T15:29:26.034Z,31.65
2023-07-04T15:30:58.361Z,31.63
2023-07-04T15:32:30.419Z,31.62
2023-07-04T15:34:02.643Z,31.62
2023-07-04T15:35:34.805Z,31.63
2023-07-04T15:37:08.651Z,31.61
2023-07-04T15:38:41.348Z,31.58
2023-07-04T15:40:13.652Z,31.57
2023-07-04T15:41:45.630Z,31.57
2023-07-04T15:43:18.511Z,31.57
2023-07-04T15:44:50.789Z,31.56
2023-07-04T15:46:24.495Z,31.56
2023-07-04T15:47:58.489Z,31.57
2023-07-04T15:49:30.441Z,31.55
2023-07-04T15:51:02.690Z,31.54
2023-07-04T15:52:34.669Z,31.55
2023-07-04T15:54:06.938Z,31.52
2023-07-04T15:55:39.328Z,31.46
2023-07-04T15:57:11.231Z,31.42
2023-07-04T15:58:43.234Z,31.41
2023-07-04T16:00:17.522Z,31.40
2023-07-04T16:03:21.591Z,31.38
2023-07-04T16:04:53.906Z,31.37
2023-07-04T16:06:25.889Z,31.37
2023-07-04T16:07:58.036Z,31.37
2023-07-04T16:09:30.041Z,31.39
2023-07-04T16:11:03.122Z,31.41
2023-07-04T16:12:35.094Z,31.44
2023-07-04T16:14:07.114Z,31.52
2023-07-04T16:15:39.350Z,31.58
2023-07-04T16:17:11.425Z,31.66
2023-07-04T16:18:43.697Z,31.75
2023-07-04T16:20:15.733Z,31.93
2023-07-04T16:21:47.820Z,32.05
2023-07-04T16:23:19.919Z,32.13
2023-07-04T16:24:51.947Z,32.15
2023-07-04T16:26:25.952Z,32.07
2023-07-04T16:27:58.877Z,32.02
2023-07-04T16:29:31.294Z,31.97
2023-07-04T16:31:05.342Z,31.94
2023-07-04T16:32:37.325Z,31.90
2023-07-04T16:34:09.451Z,31.88
2023-07-04T16:35:41.992Z,31.89
2023-07-04T16:37:13.984Z,31.92
2023-07-04T16:38:45.923Z,31.97
2023-07-04T16:40:17.920Z,32.03
2023-07-04T16:41:49.946Z,32.15
2023-07-04T16:43:22.201Z,32.27
2023-07-04T16:44:54.173Z,32.40
2023-07-04T16:46:26.419Z,32.55
2023-07-04T16:48:01.356Z,32.71
2023-07-04T16:49:33.446Z,32.83
2023-07-04T16:51:05.550Z,32.91
2023-07-04T16:52:37.586Z,32.95
2023-07-04T16:54:09.671Z,32.92
2023-07-04T16:55:41.987Z,32.91
2023-07-04T16:57:14.341Z,32.90
2023-07-04T16:58:47.781Z,32.87
2023-07-04T17:00:19.975Z,32.89
2023-07-04T17:01:52.277Z,32.94
2023-07-04T17:03:24.445Z,33.01
2023-07-04T17:04:56.549Z,33.02
2023-07-04T17:06:28.602Z,32.99
2023-07-04T17:08:00.632Z,32.87
2023-07-04T17:09:35.043Z,32.67
2023-07-04T17:11:07.795Z,32.44
2023-07-04T17:12:42.626Z,32.25
2023-07-04T17:14:14.682Z,32.02
2023-07-04T17:15:51.519Z,31.83
2023-07-04T17:17:24.006Z,31.67
2023-07-04T17:18:56.082Z,31.53
2023-07-04T17:20:28.068Z,31.39
2023-07-04T17:22:03.060Z,31.26
2023-07-04T17:23:35.083Z,31.09
2023-07-04T17:25:14.530Z,30.93
2023-07-04T17:26:47.080Z,30.72
2023-07-04T17:28:19.344Z,30.52
2023-07-04T17:29:51.351Z,30.32
2023-07-04T17:31:23.429Z,30.14
2023-07-04T17:32:55.479Z,29.98
2023-07-04T17:34:29.405Z,29.82
2023-07-04T17:36:05.521Z,29.68
2023-07-04T17:37:37.561Z,29.56
2023-07-04T17:39:09.603Z,29.44
2023-07-04T17:40:41.641Z,29.34
2023-07-04T17:42:13.648Z,29.24
2023-07-04T17:43:45.783Z,29.11
2023-07-04T17:45:18.021Z,29.00
2023-07-04T17:46:50.696Z,28.90
2023-07-04T17:48:22.664Z,28.77
2023-07-04T17:49:55.703Z,28.66
2023-07-04T17:51:28.493Z,28.54
2023-07-04T17:53:00.562Z,28.44
2023-07-04T17:54:32.645Z,28.35
2023-07-04T17:56:05.860Z,28.26
2023-07-04T17:57:37.834Z,28.14
2023-07-04T17:59:09.977Z,28.06
2023-07-04T18:00:42.037Z,27.98
2023-07-04T18:02:14.094Z,27.90
2023-07-04T18:03:46.490Z,27.81
2023-07-04T18:05:18.580Z,27.71
2023-07-04T18:06:52.040Z,27.62
2023-07-04T18:08:24.341Z,27.53
2023-07-04T18:09:59.613Z,27.43
2023-07-04T18:11:31.682Z,27.35
2023-07-04T18:13:03.810Z,27.27
2023-07-04T18:14:35.941Z,27.19
2023-07-04T18:16:08.113Z,27.11
2023-07-04T18:17:40.360Z,27.00
2023-07-04T18:19:12.410Z,26.95
2023-07-04T18:20:44.511Z,26.89
2023-07-04T18:22:16.604Z,26.82
2023-07-04T18:23:50.581Z,26.75
2023-07-04T18:25:22.903Z,26.66
2023-07-04T18:26:54.958Z,26.60
2023-07-04T18:28:27.315Z,26.54
2023-07-04T18:29:59.347Z,26.48
2023-07-04T18:31:31.678Z,26.44
2023-07-04T18:33:03.802Z,26.40
2023-07-04T18:34:36.045Z,26.34
2023-07-04T18:36:18.415Z,26.26
2023-07-04T18:37:50.572Z,26.17
2023-07-04T18:39:22.680Z,26.08
2023-07-04T18:40:54.975Z,26.05
2023-07-04T18:42:27.203Z,26.02
2023-07-04T18:43:59.159Z,25.98
2023-07-04T18:45:31.115Z,25.95
2023-07-04T18:47:03.302Z,25.90
2023-07-04T18:48:36.302Z,25.82
2023-07-04T18:50:08.566Z,25.76
2023-07-04T18:51:40.700Z,25.68
2023-07-04T18:53:12.691Z,25.62
2023-07-04T18:54:44.674Z,25.57
2023-07-04T18:56:16.671Z,25.52
2023-07-04T18:57:48.721Z,25.48
2023-07-04T18:59:20.738Z,25.42
2023-07-04T19:00:53.166Z,25.39
2023-07-04T19:02:25.501Z,25.33
2023-07-04T19:03:58.127Z,25.29
2023-07-04T19:05:32.681Z,25.24
2023-07-04T19:07:04.913Z,25.19
2023-07-04T19:08:37.032Z,25.13
2023-07-04T19:10:09.112Z,25.09
2023-07-04T19:11:41.972Z,25.05
2023-07-04T19:13:15.828Z,25.01
2023-07-04T19:14:47.995Z,24.96
2023-07-04T19:16:20.112Z,24.91
2023-07-04T19:17:52.681Z,24.86
2023-07-04T19:19:24.941Z,24.81
2023-07-04T19:21:00.278Z,24.76
2023-07-04T19:22:32.336Z,24.71
2023-07-04T19:24:04.519Z,24.66
2023-07-04T19:25:38.348Z,24.61
2023-07-04T19:27:16.202Z,24.57
2023-07-04T19:28:48.603Z,24.52
2023-07-04T19:30:20.589Z,24.50
2023-07-04T19:31:53.336Z,24.48
2023-07-04T19:33:25.756Z,24.46
2023-07-04T19:34:58.473Z,24.43
2023-07-04T19:36:30.475Z,24.39
2023-07-04T19:38:02.494Z,24.36
2023-07-04T19:39:34.997Z,24.33
2023-07-04T20:39:20.782Z,23.18
2023-07-04T20:40:52.993Z,23.16
2023-07-04T20:42:24.922Z,23.13
2023-07-04T20:43:56.886Z,23.12
2023-07-04T20:45:30.375Z,23.09
2023-07-04T20:47:02.729Z,23.08
2023-07-04T20:48:35.024Z,23.05
2023-07-04T20:50:07.300Z,22.99
2023-07-04T20:51:39.350Z,22.96
2023-07-04T20:53:11.337Z,22.95
2023-07-04T20:54:43.393Z,22.92
2023-07-04T20:56:15.661Z,22.90
2023-07-04T20:57:48.061Z,22.90
2023-07-04T20:59:19.958Z,22.90
2023-07-04T21:00:53.344Z,22.90
2023-07-04T21:02:26.379Z,22.90
2023-07-04T21:03:58.688Z,22.89
2023-07-04T21:05:30.983Z,22.89
2023-07-04T21:07:03.775Z,22.88
2023-07-04T21:08:36.019Z,22.86
2023-07-04T21:10:08.788Z,22.84
2023-07-04T21:11:40.995Z,22.84
2023-07-04T21:13:21.927Z,22.84
2023-07-04T21:14:54.057Z,22.83
2023-07-04T21:16:26.140Z,22.82
2023-07-04T21:17:58.308Z,22.83
2023-07-04T21:19:30.263Z,22.82
2023-07-04T21:21:02.717Z,22.80
2023-07-04T21:22:34.734Z,22.79
2023-07-04T21:24:06.675Z,22.79
2023-07-04T21:25:39.451Z,22.78
2023-07-04T21:27:11.639Z,22.78
2023-07-04T21:28:43.706Z,22.76
2023-07-04T21:30:15.747Z,22.76
2023-07-04T21:31:47.880Z,22.75
2023-07-04T21:33:20.025Z,22.76
2023-07-04T21:34:52.021Z,22.75
2023-07-04T21:36:24.102Z,22.75
2023-07-04T21:37:56.925Z,22.75
2023-07-04T21:39:28.963Z,22.71
2023-07-04T21:41:01.405Z,22.68
2023-07-04T21:42:33.474Z,22.66
2023-07-04T21:44:05.612Z,22.64
2023-07-04T21:45:37.654Z,22.61
2023-07-04T21:47:10.263Z,22.60
2023-07-04T21:48:42.370Z,22.58
2023-07-04T21:50:14.380Z,22.55
2023-07-04T21:51:46.423Z,22.54
2023-07-04T21:53:18.569Z,22.53
2023-07-04T21:54:50.628Z,22.51
2023-07-04T21:56:22.669Z,22.50
2023-07-04T21:57:56.252Z,22.46
2023-07-04T21:59:28.700Z,22.45
2023-07-04T22:01:02.266Z,22.45
2023-07-04T22:02:34.506Z,22.46
2023-07-04T22:04:06.571Z,22.45
2023-07-04T22:05:38.521Z,22.45
2023-07-04T22:07:10.521Z,22.43
2023-07-04T22:08:42.858Z,22.40
2023-07-04T22:10:15.911Z,22.39
2023-07-04T22:11:47.888Z,22.40
2023-07-04T22:13:20.023Z,22.40
2023-07-04T22:14:52.045Z,22.38